Time;durP1;ratioP1;P1;durP2;ratioP2;P2;SDS_P1;SDS_P2;PMS_P1;PMS_P2;Temp;Humidity;BMP_temperature;BMP_pressure;BME280_temperature;BME280_humidity;BME280_pressure;Samples;Min_cycle;Max_cycle;Signal;HPM_P1;HPM_P2
2021/12/18 00:02:22;;;;;;;;;38.33;29.67;;;;;7.65;97.24;103595.84;5055088;28;45566;-67
2021/12/18 00:04:48;;;;;;;;;29.67;25.33;;;;;7.55;96.99;103584.16;5055032;28;45508;-66
2021/12/18 00:07:13;;;;;;;;;37.67;30.00;;;;;7.56;97.29;103588.53;5055012;28;45508;-67
2021/12/18 00:09:40;;;;;;;;;27.00;23.67;;;;;7.60;97.04;103586.94;5055059;28;45467;-68
2021/12/18 00:12:09;;;;;;;;;37.67;30.33;;;;;7.56;96.96;103595.50;5054858;28;45494;-67
2021/12/18 00:14:35;;;;;;;;;38.00;31.00;;;;;7.48;97.41;103588.28;5055090;28;45491;-66
2021/12/18 00:17:02;;;;;;;;;30.00;25.00;;;;;7.52;96.87;103588.38;5054705;28;46231;-67
2021/12/18 00:19:27;;;;;;;;;35.67;25.67;;;;;7.52;97.41;103586.63;5054518;28;45914;-66
2021/12/18 00:21:54;;;;;;;;;42.00;33.00;;;;;7.54;97.27;103594.56;5054888;28;45467;-66
2021/12/18 00:24:20;;;;;;;;;31.33;27.33;;;;;7.53;97.51;103590.16;5055076;28;45802;-67
2021/12/18 00:26:46;;;;;;;;;31.33;27.33;;;;;7.46;97.12;103586.41;5054761;28;45517;-67
2021/12/18 00:29:13;;;;;;;;;38.67;29.33;;;;;7.52;97.17;103596.25;5054599;28;45517;-67
2021/12/18 00:31:38;;;;;;;;;39.33;33.00;;;;;7.50;97.17;103585.69;5054602;28;45466;-67
2021/12/18 00:34:04;;;;;;;;;37.67;31.67;;;;;7.49;97.10;103592.69;5054988;28;45542;-67
2021/12/18 00:36:29;;;;;;;;;36.00;31.33;;;;;7.47;97.22;103591.72;5054189;28;45845;-67
2021/12/18 00:38:54;;;;;;;;;39.67;30.67;;;;;7.41;97.48;103585.38;5054530;28;45721;-68
2021/12/18 00:44:13;;;;;;;;;39.67;30.00;;;;;7.44;97.55;103599.47;5045911;28;45530;-66
2021/12/18 00:46:43;;;;;;;;;44.67;34.33;;;;;7.48;97.29;103598.75;5053848;28;46309;-67
2021/12/18 00:49:12;;;;;;;;;36.33;30.00;;;;;7.55;97.03;103602.50;5054447;28;45398;-68
2021/12/18 00:51:38;;;;;;;;;42.33;32.33;;;;;7.50;97.11;103586.56;5054429;28;45529;-67
2021/12/18 00:54:04;;;;;;;;;34.33;30.33;;;;;7.60;97.20;103587.81;5054473;28;45467;-67
2021/12/18 00:56:32;;;;;;;;;38.67;35.00;;;;;7.63;96.57;103587.91;5054288;28;47118;-67
2021/12/18 00:58:58;;;;;;;;;51.33;36.00;;;;;7.71;96.39;103593.44;5054174;28;45449;-67
2021/12/18 01:01:27;;;;;;;;;46.67;35.00;;;;;7.69;95.26;103589.88;5054322;28;45440;-67
2021/12/18 01:03:54;;;;;;;;;40.00;32.67;;;;;7.74;95.53;103592.66;5054514;28;45582;-67
2021/12/18 01:06:21;;;;;;;;;47.00;36.33;;;;;7.69;95.16;103589.88;5053949;28;46110;-69
2021/12/18 01:08:50;;;;;;;;;43.33;33.00;;;;;7.60;95.40;103592.19;5054056;28;45455;-68
2021/12/18 01:11:32;;;;;;;;;55.67;35.67;;;;;7.65;95.58;103599.38;5054046;28;45477;-66
2021/12/18 01:24:52;;;;;;;;;46.00;35.00;;;;;7.41;95.76;103577.50;5031113;28;45464;-67
2021/12/18 01:27:18;;;;;;;;;45.33;36.67;;;;;7.48;95.46;103598.75;5031183;28;46294;-67
2021/12/18 01:29:43;;;;;;;;;58.33;44.33;;;;;7.47;95.99;103596.06;5030849;28;45467;-67
2021/12/18 01:32:09;;;;;;;;;52.00;39.67;;;;;7.50;95.93;103597.06;5031015;28;45547;-67
2021/12/18 01:34:36;;;;;;;;;52.00;38.00;;;;;7.56;95.20;103609.50;5031210;28;45441;-67
2021/12/18 01:37:02;;;;;;;;;57.67;41.33;;;;;7.45;95.09;103590.78;5030434;28;48104;-66
2021/12/18 01:39:27;;;;;;;;;54.33;39.67;;;;;7.44;94.76;103607.34;5030832;28;45575;-68
2021/12/18 01:42:14;;;;;;;;;56.67;40.33;;;;;7.44;95.11;103616.94;5030761;28;45544;-67
2021/12/18 01:52:41;;;;;;;;;57.67;43.33;;;;;7.27;96.37;103617.19;5030772;28;45638;-66
2021/12/18 01:55:09;;;;;;;;;52.33;40.67;;;;;7.19;95.25;103612.50;5030742;28;45752;-67
2021/12/18 01:57:35;;;;;;;;;58.00;42.33;;;;;7.23;95.58;103619.66;5052857;28;45511;-67
2021/12/18 02:00:00;;;;;;;;;54.67;40.67;;;;;7.14;96.02;103618.47;5053211;28;45480;-66
2021/12/18 02:02:26;;;;;;;;;60.67;42.33;;;;;6.99;95.78;103589.06;5052708;28;45499;-66
2021/12/18 02:04:52;;;;;;;;;56.00;40.67;;;;;7.11;96.09;103623.56;5053546;28;45673;-66
2021/12/18 02:07:17;;;;;;;;;54.67;39.67;;;;;7.10;95.70;103623.53;5053105;28;45586;-66
2021/12/18 02:10:06;;;;;;;;;58.33;42.67;;;;;7.14;95.80;103626.34;5053057;28;45626;-66
2021/12/18 02:12:45;;;;;;;;;62.67;43.00;;;;;7.17;95.85;103625.53;5053131;28;45542;-66
2021/12/18 02:20:45;;;;;;;;;55.00;41.33;;;;;7.02;95.94;103614.50;5052994;28;45441;-66
2021/12/18 02:23:11;;;;;;;;;60.67;40.33;;;;;7.04;95.66;103626.78;5053060;28;45470;-66
2021/12/18 02:25:37;;;;;;;;;58.67;42.67;;;;;6.78;96.01;103582.19;5053100;28;45415;-66
2021/12/18 02:28:06;;;;;;;;;65.67;44.67;;;;;7.00;95.78;103614.44;5053000;28;46382;-66
2021/12/18 02:30:33;;;;;;;;;54.33;41.33;;;;;7.03;95.68;103625.03;5052532;28;45495;-66
2021/12/18 02:32:59;;;;;;;;;59.00;42.33;;;;;6.88;95.57;103595.63;5052802;28;45533;-66
2021/12/18 02:35:30;;;;;;;;;59.00;46.00;;;;;6.95;96.20;103605.50;5053147;28;45862;-66
2021/12/18 02:38:12;;;;;;;;;60.00;43.67;;;;;6.96;95.91;103609.91;5052486;28;46720;-66
2021/12/18 02:43:31;;;;;;;;;65.67;47.33;;;;;6.87;95.99;103605.22;5052762;28;45452;-66
2021/12/18 02:45:59;;;;;;;;;65.67;45.00;;;;;6.85;95.82;103600.75;5052768;28;45408;-66
2021/12/18 02:48:25;;;;;;;;;57.00;40.67;;;;;6.87;95.94;103609.53;5052399;28;46273;-66
2021/12/18 02:50:51;;;;;;;;;44.67;38.67;;;;;6.84;96.32;103607.72;5052409;28;45576;-66
2021/12/18 02:53:16;;;;;;;;;64.33;48.67;;;;;6.81;95.99;103615.41;5052869;28;45843;-67
2021/12/18 02:55:42;;;;;;;;;54.33;42.00;;;;;6.57;96.28;103571.75;5052888;28;45590;-66
2021/12/18 02:58:10;;;;;;;;;63.67;45.00;;;;;6.73;96.47;103603.78;5052611;28;46451;-66
2021/12/18 03:00:35;;;;;;;;;59.00;44.33;;;;;6.76;96.74;103611.75;5052467;28;45746;-66
2021/12/18 03:03:07;;;;;;;;;63.00;46.33;;;;;6.72;96.53;103600.25;5052420;28;45411;-66
2021/12/18 03:05:39;;;;;;;;;67.00;45.33;;;;;6.75;96.19;103604.72;5052821;28;45451;-66
2021/12/18 03:08:12;;;;;;;;;65.00;42.33;;;;;6.71;96.63;103606.34;5052237;28;47457;-67
2021/12/18 03:20:01;;;;;;;;;66.00;47.33;;;;;6.65;96.70;103602.56;5055335;28;45925;-66
2021/12/18 03:24:54;;;;;;;;;65.67;46.00;;;;;6.57;97.37;103607.50;5032571;28;45593;-66
2021/12/18 03:27:20;;;;;;;;;59.67;46.00;;;;;6.49;97.28;103588.88;5032885;28;45571;-67
2021/12/18 03:29:45;;;;;;;;;59.67;45.33;;;;;6.49;97.42;103581.03;5032408;28;47263;-66
2021/12/18 03:32:11;;;;;;;;;67.00;44.33;;;;;6.48;97.47;103573.09;5032598;28;45590;-66
2021/12/18 03:34:36;;;;;;;;;67.00;48.67;;;;;6.52;97.57;103583.78;5032694;28;45885;-66
2021/12/18 03:37:02;;;;;;;;;57.33;42.33;;;;;6.47;97.33;103574.81;5032948;28;45452;-66
2021/12/18 03:39:28;;;;;;;;;61.00;45.00;;;;;6.45;97.50;103574.75;5032475;28;46942;-66
2021/12/18 03:41:53;;;;;;;;;60.00;44.00;;;;;6.34;98.19;103562.09;5032416;28;45847;-66
2021/12/18 03:44:19;;;;;;;;;55.00;41.33;;;;;6.45;98.02;103582.63;5032668;28;45571;-66
2021/12/18 03:46:45;;;;;;;;;64.67;48.00;;;;;6.43;98.33;103576.44;5032488;28;45392;-66
2021/12/18 03:49:10;;;;;;;;;61.00;46.67;;;;;6.27;98.81;103564.47;5032335;28;46097;-66
2021/12/18 03:51:36;;;;;;;;;52.67;41.00;;;;;6.33;98.18;103563.81;5032401;28;45547;-66
2021/12/18 03:54:02;;;;;;;;;57.67;41.67;;;;;6.49;98.15;103587.97;5032582;28;45525;-66
2021/12/18 03:56:28;;;;;;;;;72.00;49.00;;;;;6.49;97.95;103573.19;5032474;28;45486;-66
2021/12/18 03:58:53;;;;;;;;;62.67;46.33;;;;;6.56;97.86;103587.38;5032097;28;45715;-66
2021/12/18 04:01:19;;;;;;;;;72.00;48.33;;;;;6.57;97.61;103576.97;5039081;28;45507;-66
2021/12/18 04:03:44;;;;;;;;;61.00;45.33;;;;;6.58;97.58;103570.03;5055127;28;45575;-66
2021/12/18 04:06:09;;;;;;;;;66.33;43.00;;;;;6.73;97.45;103583.72;5055520;28;45536;-66
2021/12/18 04:08:35;;;;;;;;;66.33;47.33;;;;;6.74;97.43;103582.00;5054748;28;45572;-66
2021/12/18 04:11:00;;;;;;;;;62.33;43.67;;;;;6.51;97.19;103541.84;5054927;28;45529;-66
2021/12/18 04:13:25;;;;;;;;;62.67;41.00;;;;;6.85;97.10;103590.25;5055060;28;45415;-66
2021/12/18 04:15:51;;;;;;;;;60.00;44.00;;;;;6.84;96.46;103580.59;5055231;28;45490;-66
2021/12/18 04:18:16;;;;;;;;;67.00;47.00;;;;;6.90;96.28;103586.13;5054656;28;45619;-66
2021/12/18 04:20:41;;;;;;;;;60.67;45.67;;;;;6.85;95.88;103575.44;5054520;28;45492;-66
2021/12/18 04:23:07;;;;;;;;;66.67;47.67;;;;;6.91;96.10;103582.63;5055029;28;45495;-66
2021/12/18 04:25:32;;;;;;;;;64.67;47.33;;;;;6.97;96.01;103581.16;5054580;28;45649;-66
2021/12/18 04:27:58;;;;;;;;;58.67;44.00;;;;;7.05;95.54;103591.03;5054595;28;45798;-66
2021/12/18 04:30:23;;;;;;;;;63.33;46.33;;;;;7.05;95.71;103593.66;5054592;28;45326;-66
2021/12/18 04:32:49;;;;;;;;;71.00;48.00;;;;;7.08;95.58;103593.75;5054475;28;45790;-66
2021/12/18 04:35:14;;;;;;;;;60.33;41.67;;;;;7.09;95.43;103593.81;5054886;28;45429;-67
2021/12/18 04:37:40;;;;;;;;;66.33;46.00;;;;;7.08;95.50;103588.53;5054275;28;46325;-67
2021/12/18 04:40:07;;;;;;;;;61.00;48.00;;;;;7.12;95.41;103590.44;5054485;28;45450;-67
2021/12/18 04:42:32;;;;;;;;;54.67;40.67;;;;;7.05;95.38;103575.31;5054649;28;45405;-66
2021/12/18 04:44:58;;;;;;;;;62.00;48.00;;;;;7.13;95.13;103585.25;5054404;28;45456;-66
2021/12/18 04:47:23;;;;;;;;;66.00;42.00;;;;;7.16;94.70;103584.47;5053978;28;46097;-67
2021/12/18 04:49:48;;;;;;;;;61.00;44.00;;;;;7.13;94.73;103576.47;5054349;28;45460;-67
2021/12/18 04:52:14;;;;;;;;;65.33;45.00;;;;;7.15;94.81;103577.44;5054387;28;45433;-67
2021/12/18 04:54:39;;;;;;;;;65.00;46.33;;;;;7.11;94.78;103565.94;5054551;28;45415;-66
2021/12/18 04:57:05;;;;;;;;;67.33;51.33;;;;;7.12;95.08;103579.94;5054131;28;46550;-67
2021/12/18 04:59:30;;;;;;;;;71.67;50.00;;;;;7.08;95.17;103571.06;5054011;28;45514;-67
2021/12/18 05:01:56;;;;;;;;;72.33;49.00;;;;;7.12;95.04;103575.59;5054093;28;45571;-67
2021/12/18 05:04:22;;;;;;;;;72.00;50.67;;;;;7.09;94.95;103569.34;5054158;28;45436;-66
2021/12/18 05:06:50;;;;;;;;;63.33;46.33;;;;;6.90;94.96;103536.34;5053837;28;46603;-67
2021/12/18 05:09:16;;;;;;;;;57.33;44.67;;;;;7.16;94.93;103579.22;5053989;28;45780;-67
2021/12/18 05:11:43;;;;;;;;;64.67;48.67;;;;;7.15;94.92;103586.19;5054073;28;45447;-67
2021/12/18 05:14:09;;;;;;;;;64.67;44.00;;;;;7.17;94.68;103581.00;5054253;28;45532;-67
2021/12/18 05:16:35;;;;;;;;;68.00;46.33;;;;;7.11;94.40;103586.00;5053608;28;46107;-66
2021/12/18 05:19:00;;;;;;;;;68.00;48.33;;;;;7.12;94.31;103585.19;5053757;28;45547;-67
2021/12/18 05:21:26;;;;;;;;;66.00;46.33;;;;;7.12;94.60;103586.06;5054055;28;45447;-67
2021/12/18 05:23:52;;;;;;;;;63.67;49.00;;;;;6.97;94.70;103570.69;5054034;28;45451;-67
2021/12/18 05:26:18;;;;;;;;;61.33;47.00;;;;;7.13;94.66;103593.09;5053639;28;46437;-66
2021/12/18 05:28:43;;;;;;;;;63.67;48.67;;;;;7.02;94.65;103576.09;5053770;28;45507;-67
2021/12/18 05:31:10;;;;;;;;;65.67;49.33;;;;;7.00;94.86;103571.59;5053896;28;45420;-67
2021/12/18 05:33:36;;;;;;;;;62.33;46.33;;;;;7.13;94.84;103594.81;5053778;28;45406;-67
2021/12/18 05:36:03;;;;;;;;;64.67;45.00;;;;;7.14;94.86;103584.41;5052395;28;47264;-67
2021/12/18 05:38:29;;;;;;;;;65.00;46.67;;;;;7.15;94.48;103583.56;5053200;28;45470;-67
2021/12/18 05:40:54;;;;;;;;;59.67;44.67;;;;;7.12;94.47;103588.69;5053394;28;45526;-67
2021/12/18 05:43:19;;;;;;;;;63.67;46.33;;;;;6.99;94.36;103568.13;5053866;28;45356;-67
2021/12/18 05:45:46;;;;;;;;;64.33;47.33;;;;;7.09;94.45;103592.94;5053194;28;46217;-67
2021/12/18 05:48:12;;;;;;;;;65.33;45.67;;;;;7.07;94.31;103589.34;5053346;28;45467;-67
2021/12/18 05:50:37;;;;;;;;;67.00;46.00;;;;;7.06;94.32;103588.47;5053379;28;45483;-67
2021/12/18 05:53:03;;;;;;;;;61.67;44.00;;;;;7.06;94.66;103598.06;5053568;28;45443;-66
2021/12/18 05:55:30;;;;;;;;;62.33;47.00;;;;;6.78;94.42;103541.97;5053288;28;46185;-66
2021/12/18 05:57:55;;;;;;;;;59.33;43.00;;;;;7.08;94.61;103592.03;5052044;28;45487;-66
2021/12/18 06:00:21;;;;;;;;;65.67;41.67;;;;;7.04;94.49;103592.75;5053136;28;46090;-66
2021/12/18 06:02:47;;;;;;;;;64.33;46.67;;;;;7.07;94.66;103599.81;5053500;28;45458;-67
2021/12/18 06:05:13;;;;;;;;;62.33;45.00;;;;;7.06;94.81;103591.09;5053161;28;47487;-67
2021/12/18 06:07:58;;;;;;;;;60.33;43.33;;;;;7.01;94.64;103586.50;5053307;28;45526;-67
2021/12/18 06:10:29;;;;;;;;;71.33;51.00;;;;;7.00;95.12;103587.31;5053395;28;45685;-67
2021/12/18 06:12:57;;;;;;;;;62.67;45.67;;;;;7.12;95.08;103607.03;5053223;28;45957;-67
2021/12/18 06:15:23;;;;;;;;;60.33;42.67;;;;;7.04;95.00;103591.84;5052798;28;46520;-67
2021/12/18 06:17:48;;;;;;;;;61.00;47.00;;;;;7.02;95.23;103589.19;5052886;28;45432;-67
2021/12/18 06:20:14;;;;;;;;;60.00;46.00;;;;;7.08;95.20;103594.66;5051671;28;45529;-67
2021/12/18 06:22:39;;;;;;;;;63.33;43.33;;;;;7.10;95.03;103590.38;5053306;28;45529;-66
2021/12/18 06:25:05;;;;;;;;;68.00;47.00;;;;;6.85;95.00;103550.97;5052735;28;45747;-67
2021/12/18 06:27:31;;;;;;;;;54.67;40.67;;;;;6.88;95.23;103558.94;5052909;28;45485;-67
2021/12/18 06:29:56;;;;;;;;;65.00;47.33;;;;;7.04;95.71;103595.34;5053081;28;45481;-67
2021/12/18 06:32:22;;;;;;;;;58.00;42.00;;;;;7.08;95.20;103599.88;5053049;28;45814;-66
2021/12/18 06:34:47;;;;;;;;;56.50;42.00;;;;;7.07;95.25;103595.50;5052900;28;45519;-66
2021/12/18 06:37:15;;;;;;;;;57.33;41.33;;;;;7.10;95.41;103600.84;5052768;28;45572;-66
2021/12/18 06:39:40;;;;;;;;;61.00;46.33;;;;;7.14;95.84;103609.72;5052825;28;45463;-66
2021/12/18 06:42:06;;;;;;;;;61.00;41.00;;;;;7.10;95.61;103600.84;5053104;28;45468;-67
2021/12/18 06:44:31;;;;;;;;;60.00;41.33;;;;;7.21;95.26;103611.72;5052533;28;46608;-66
2021/12/18 06:46:56;;;;;;;;;60.67;43.33;;;;;7.20;95.21;103606.44;5053064;28;45539;-66
2021/12/18 06:49:22;;;;;;;;;48.33;32.67;;;;;7.18;95.79;103614.22;5056256;28;45550;-66
2021/12/18 06:51:48;;;;;;;;;54.33;38.00;;;;;7.20;95.63;103614.28;5056308;28;45522;-66
2021/12/18 06:54:13;;;;;;;;;56.33;41.33;;;;;7.19;95.78;103610.78;5056172;28;45607;-67
2021/12/18 06:56:39;;;;;;;;;52.00;39.33;;;;;7.15;96.14;103599.28;5056101;28;45634;-67
2021/12/18 06:59:04;;;;;;;;;54.33;38.67;;;;;7.22;95.58;103604.75;5056155;28;45844;-67
2021/12/18 07:01:30;;;;;;;;;55.33;37.33;;;;;7.28;95.48;103608.50;5056245;28;45499;-67
2021/12/18 07:03:55;;;;;;;;;53.00;39.00;;;;;7.26;95.63;103609.28;5055736;28;45746;-67
2021/12/18 07:06:20;;;;;;;;;61.00;43.67;;;;;7.27;95.44;103605.81;5055938;28;45498;-67
2021/12/18 07:08:46;;;;;;;;;50.33;40.00;;;;;7.20;95.22;103599.44;5054554;28;45535;-67
2021/12/18 07:11:12;;;;;;;;;57.00;41.33;;;;;7.31;95.36;103619.09;5056253;28;45609;-67
2021/12/18 07:13:37;;;;;;;;;52.00;38.00;;;;;7.28;95.43;103618.09;5055496;28;45513;-67
2021/12/18 07:16:02;;;;;;;;;54.33;38.00;;;;;7.19;95.28;103609.88;5055544;28;45432;-67
2021/12/18 07:18:29;;;;;;;;;46.33;38.00;;;;;7.21;95.36;103602.97;5055867;28;45592;-67
2021/12/18 07:20:54;;;;;;;;;42.67;29.00;;;;;7.30;94.91;103624.28;5055845;28;45483;-67
2021/12/18 07:23:19;;;;;;;;;45.00;34.33;;;;;7.28;94.81;103624.22;5055537;28;46592;-67
2021/12/18 07:25:45;;;;;;;;;52.67;41.33;;;;;7.27;94.99;103618.94;5055671;28;45578;-67
2021/12/18 07:28:10;;;;;;;;;54.00;39.00;;;;;7.26;95.29;103619.75;5055716;28;45550;-67
2021/12/18 07:30:35;;;;;;;;;50.33;36.33;;;;;7.00;95.14;103580.38;5055788;28;45678;-67
2021/12/18 07:33:01;;;;;;;;;54.00;40.33;;;;;7.23;95.35;103617.03;5055302;28;45631;-67
2021/12/18 07:35:26;;;;;;;;;55.67;41.33;;;;;7.24;95.32;103619.69;5055544;28;45408;-66
2021/12/18 07:37:52;;;;;;;;;56.67;43.00;;;;;7.35;95.56;103629.69;5055508;28;45509;-66
2021/12/18 07:40:17;;;;;;;;;59.67;41.33;;;;;7.31;95.14;103619.09;5055552;28;45513;-66
2021/12/18 07:42:43;;;;;;;;;52.00;43.33;;;;;7.35;95.52;103622.75;5055385;28;46291;-67
2021/12/18 07:45:09;;;;;;;;;52.67;38.00;;;;;7.45;94.72;103634.44;5055370;28;45499;-67
2021/12/18 07:47:35;;;;;;;;;52.67;39.00;;;;;7.27;94.40;103601.47;5055272;28;45665;-67
2021/12/18 07:50:02;;;;;;;;;51.67;38.33;;;;;7.48;93.72;103643.31;5055514;28;45610;-67
2021/12/18 07:52:27;;;;;;;;;51.67;38.33;;;;;7.46;93.55;103641.47;5055051;28;47361;-67
2021/12/18 07:54:53;;;;;;;;;53.67;44.00;;;;;7.45;93.28;103644.91;5055021;28;45461;-67
2021/12/18 07:57:18;;;;;;;;;48.33;39.67;;;;;7.42;93.61;103643.09;5055240;28;45519;-66
2021/12/18 07:59:44;;;;;;;;;57.00;42.00;;;;;7.42;93.90;103642.19;5054545;28;45558;-67
2021/12/18 08:02:09;;;;;;;;;54.67;42.00;;;;;7.47;93.87;103646.78;5054782;28;45611;-67
2021/12/18 08:04:35;;;;;;;;;48.33;37.00;;;;;7.42;93.39;103648.34;5054828;28;45889;-67
2021/12/18 08:07:02;;;;;;;;;57.67;43.33;;;;;7.32;93.72;103636.63;5055246;28;45609;-67
2021/12/18 08:09:27;;;;;;;;;56.67;42.67;;;;;7.36;93.70;103644.59;5055209;28;45619;-67
2021/12/18 08:11:53;;;;;;;;;52.00;41.33;;;;;7.39;94.24;103637.75;5054709;28;45800;-66
2021/12/18 08:14:18;;;;;;;;;55.00;39.00;;;;;7.41;93.96;103640.44;5054658;28;45459;-67
2021/12/18 08:16:44;;;;;;;;;54.33;39.67;;;;;7.49;93.72;103647.75;5054888;28;45806;-66
2021/12/18 08:19:09;;;;;;;;;57.33;40.67;;;;;7.45;93.63;103643.22;5054978;28;45574;-67
2021/12/18 08:21:34;;;;;;;;;52.33;39.67;;;;;7.17;93.43;103601.06;5054652;28;45406;-67
2021/12/18 08:24:00;;;;;;;;;52.00;40.33;;;;;7.49;93.62;103649.44;5054813;28;45423;-66
2021/12/18 08:26:25;;;;;;;;;55.67;40.00;;;;;7.48;93.90;103647.69;5054816;28;45810;-66
2021/12/18 08:28:51;;;;;;;;;53.67;40.67;;;;;7.47;93.78;103646.78;5054749;28;45573;-66
2021/12/18 08:31:16;;;;;;;;;54.33;41.00;;;;;7.43;93.96;103629.13;5054603;28;45489;-66
2021/12/18 08:33:42;;;;;;;;;52.00;40.67;;;;;7.43;93.78;103631.75;5054366;28;45511;-67
2021/12/18 08:36:07;;;;;;;;;56.67;40.00;;;;;7.48;93.21;103640.69;5054588;28;45815;-66
2021/12/18 08:38:33;;;;;;;;;54.67;41.00;;;;;7.51;93.59;103639.94;5054634;28;45694;-66
2021/12/18 08:40:58;;;;;;;;;47.67;35.00;;;;;7.52;93.46;103632.94;5054409;28;46159;-66
2021/12/18 08:43:24;;;;;;;;;50.33;40.67;;;;;7.50;93.24;103627.66;5054420;28;45490;-66
2021/12/18 08:45:50;;;;;;;;;53.67;41.33;;;;;7.54;93.44;103634.78;5054395;28;45610;-66
2021/12/18 08:48:16;;;;;;;;;55.67;42.33;;;;;7.47;93.41;103619.66;5053821;28;45392;-66
2021/12/18 08:50:41;;;;;;;;;58.00;42.00;;;;;7.58;93.66;103628.81;5053704;28;46009;-66
2021/12/18 08:53:06;;;;;;;;;51.67;39.00;;;;;7.63;93.44;103632.50;5054083;28;45712;-66
2021/12/18 08:55:32;;;;;;;;;55.67;42.67;;;;;7.59;93.55;103635.84;5053432;28;45632;-66
2021/12/18 08:57:57;;;;;;;;;50.00;37.00;;;;;7.62;93.03;103629.81;5054340;28;45415;-66
2021/12/18 09:00:24;;;;;;;;;52.33;40.00;;;;;7.73;92.82;103653.81;5053766;28;46376;-66
2021/12/18 09:02:52;;;;;;;;;58.33;41.00;;;;;7.73;92.87;103645.97;5050458;28;45902;-67
2021/12/18 09:05:17;;;;;;;;;60.00;42.67;;;;;7.70;93.06;103632.69;5052742;28;45847;-67
2021/12/18 09:07:43;;;;;;;;;53.00;37.67;;;;;7.76;92.53;103638.19;5052865;28;45521;-67
2021/12/18 09:10:10;;;;;;;;;62.00;43.67;;;;;7.47;92.62;103590.84;5053404;28;45586;-67
2021/12/18 09:12:35;;;;;;;;;56.00;37.00;;;;;7.54;92.90;103607.66;5065026;28;45445;-67
2021/12/18 09:15:01;;;;;;;;;49.33;38.67;;;;;7.71;93.16;103629.25;5074164;27;45543;-67
2021/12/18 09:17:27;;;;;;;;;59.00;40.67;;;;;7.78;92.75;103636.50;5074656;28;45769;-67
2021/12/18 09:19:52;;;;;;;;;45.67;37.67;;;;;7.78;92.93;103637.38;5073992;27;45531;-67
2021/12/18 09:22:18;;;;;;;;;51.67;39.33;;;;;7.78;92.94;103637.38;5064360;27;45835;-67
2021/12/18 09:24:44;;;;;;;;;55.33;44.67;;;;;7.79;92.35;103636.56;5054082;28;45531;-68
2021/12/18 09:27:09;;;;;;;;;50.00;41.00;;;;;7.76;92.67;103625.97;5053776;28;45443;-67
2021/12/18 09:29:35;;;;;;;;;53.67;39.00;;;;;7.84;92.63;103634.09;5053770;28;46446;-67
2021/12/18 09:32:00;;;;;;;;;53.33;39.00;;;;;7.85;92.89;103644.63;5052142;28;45479;-66
2021/12/18 09:34:28;;;;;;;;;57.67;43.33;;;;;7.83;92.93;103638.47;5053816;28;45551;-67
2021/12/18 09:36:53;;;;;;;;;53.33;38.67;;;;;7.94;93.14;103638.81;5052516;28;45524;-66
2021/12/18 09:39:19;;;;;;;;;60.67;43.67;;;;;7.97;92.90;103644.19;5053067;28;46177;-66
2021/12/18 09:41:48;;;;;;;;;60.33;45.33;;;;;8.00;92.03;103633.81;5052287;28;45467;-66
2021/12/18 09:44:13;;;;;;;;;43.67;35.00;;;;;8.05;91.83;103641.84;5050195;28;45467;-65
2021/12/18 09:46:39;;;;;;;;;59.33;42.67;;;;;8.10;91.11;103640.25;5050565;28;45644;-66
2021/12/18 09:49:05;;;;;;;;;54.33;38.67;;;;;8.11;91.47;103635.91;5052903;28;45537;-66
2021/12/18 09:51:33;;;;;;;;;57.67;40.00;;;;;8.08;91.53;103638.44;5053227;28;45513;-66
2021/12/18 09:53:58;;;;;;;;;49.00;37.00;;;;;8.02;92.06;103626.88;5053686;28;45831;-67
2021/12/18 09:56:25;;;;;;;;;50.33;39.67;;;;;8.12;91.64;103645.56;5053831;28;45579;-67
2021/12/18 09:58:50;;;;;;;;;55.33;41.33;;;;;8.06;90.66;103633.13;5053520;28;47035;-67
2021/12/18 10:01:16;;;;;;;;;51.33;36.00;;;;;8.15;90.95;103645.69;5053303;28;45548;-66
2021/12/18 10:03:50;;;;;;;;;52.67;38.00;;;;;8.22;90.83;103654.63;5053152;28;45706;-66
2021/12/18 10:06:43;;;;;;;;;46.33;36.33;;;;;8.07;90.79;103657.63;5052915;28;45409;-67
2021/12/18 10:09:31;;;;;;;;;53.33;37.33;;;;;8.05;91.36;103633.09;5050252;28;45546;-66
2021/12/18 10:12:00;;;;;;;;;55.00;37.00;;;;;8.15;91.71;103640.44;5049350;28;45418;-66
2021/12/18 10:14:40;;;;;;;;;54.00;39.00;;;;;8.10;91.07;103645.50;5050376;28;45388;-66
2021/12/18 10:17:27;;;;;;;;;50.67;34.33;;;;;8.15;91.82;103643.94;5050236;28;45581;-66
2021/12/18 10:20:13;;;;;;;;;49.33;37.00;;;;;8.12;91.12;103643.84;5049490;28;46164;-65
2021/12/18 10:22:57;;;;;;;;;49.00;37.00;;;;;8.11;90.92;103641.16;5053516;28;45522;-66
2021/12/18 10:25:28;;;;;;;;;43.00;33.67;;;;;8.12;90.78;103651.72;5055333;28;45501;-65
2021/12/18 10:28:09;;;;;;;;;50.00;33.33;;;;;8.11;91.58;103647.28;5055705;28;45476;-65
2021/12/18 10:30:41;;;;;;;;;41.00;33.33;;;;;8.11;92.00;103634.16;5054529;28;46482;-66
2021/12/18 10:33:11;;;;;;;;;52.00;37.00;;;;;8.23;91.55;103644.19;5056314;28;45430;-67
2021/12/18 10:35:45;;;;;;;;;44.00;34.00;;;;;8.23;91.48;103640.69;5056054;28;45747;-66
2021/12/18 10:38:37;;;;;;;;;52.33;39.33;;;;;8.28;91.12;103634.75;5055306;28;45705;-66
2021/12/18 10:41:26;;;;;;;;;42.33;34.33;;;;;8.21;90.51;103611.75;5055631;28;47621;-64
2021/12/18 10:43:56;;;;;;;;;45.33;37.00;;;;;8.31;90.65;103629.59;5056291;28;45821;-65
2021/12/18 10:46:22;;;;;;;;;55.67;36.00;;;;;8.35;90.06;103634.09;5055843;28;45925;-65
2021/12/18 10:49:05;;;;;;;;;45.67;34.67;;;;;8.37;89.87;103640.28;5056507;28;45513;-65
2021/12/18 10:51:33;;;;;;;;;47.33;36.33;;;;;8.34;90.13;103634.06;5054506;28;47397;-64
2021/12/18 10:54:01;;;;;;;;;46.67;37.00;;;;;8.38;91.14;103633.31;5055915;28;45455;-64
2021/12/18 10:56:44;;;;;;;;;49.00;37.33;;;;;8.44;91.01;103628.31;5055892;28;45882;-65
2021/12/18 10:59:27;;;;;;;;;45.67;34.00;;;;;8.49;90.77;103631.06;5055488;28;45693;-65
2021/12/18 11:01:55;;;;;;;;;42.67;33.33;;;;;8.40;90.40;103615.00;5055300;28;45461;-65
2021/12/18 11:04:25;;;;;;;;;45.67;36.00;;;;;8.49;90.57;103626.69;5054651;28;45436;-65
2021/12/18 11:06:51;;;;;;;;;46.00;32.67;;;;;8.45;90.12;103616.06;5054801;28;45542;-65
2021/12/18 11:09:27;;;;;;;;;51.00;34.00;;;;;8.21;90.69;103579.38;5056179;28;45863;-66
2021/12/18 11:14:40;;;;;;;;;49.00;36.00;;;;;8.50;91.22;103623.25;5055748;28;45463;-66
2021/12/18 11:17:10;;;;;;;;;47.33;34.67;;;;;8.50;91.26;103617.13;5055887;28;45736;-66
2021/12/18 11:19:36;;;;;;;;;52.33;38.00;;;;;8.51;91.59;103611.91;5056157;28;45469;-66
2021/12/18 11:22:14;;;;;;;;;52.00;36.67;;;;;8.59;90.86;103620.03;5054765;28;46530;-66
2021/12/18 11:24:41;;;;;;;;;54.33;39.67;;;;;8.61;91.01;103617.44;5055642;28;45425;-62
2021/12/18 11:27:10;;;;;;;;;48.00;33.67;;;;;8.62;90.76;103614.88;5055672;28;45553;-68
2021/12/18 11:29:45;;;;;;;;;49.00;36.00;;;;;8.53;90.88;103604.94;5055934;28;45528;-68
2021/12/18 11:32:20;;;;;;;;;41.67;35.67;;;;;8.55;91.31;103599.75;5055201;28;46462;-68
2021/12/18 11:34:48;;;;;;;;;50.33;36.00;;;;;8.67;91.25;103613.28;5053657;28;45473;-68
2021/12/18 11:37:16;;;;;;;;;48.67;34.67;;;;;8.68;91.62;103598.41;5055783;28;45697;-68
2021/12/18 11:39:44;;;;;;;;;53.00;39.67;;;;;8.67;91.20;103592.28;5055740;28;45559;-68
2021/12/18 11:42:09;;;;;;;;;43.00;35.00;;;;;8.75;90.32;103595.13;5055396;28;47054;-68
2021/12/18 11:44:35;;;;;;;;;56.00;39.00;;;;;8.77;90.52;103598.72;5055091;28;45480;-68
2021/12/18 11:47:19;;;;;;;;;43.33;29.67;;;;;8.74;90.78;103592.47;5055467;28;45835;-68
2021/12/18 11:49:44;;;;;;;;;48.33;38.00;;;;;8.71;90.42;103588.91;5055541;28;45814;-67
2021/12/18 11:52:10;;;;;;;;;48.33;36.33;;;;;8.74;91.12;103595.97;5055289;28;45744;-68
2021/12/18 11:54:40;;;;;;;;;52.33;37.00;;;;;8.78;91.14;103586.47;5055208;28;45942;-67
2021/12/18 11:57:05;;;;;;;;;45.67;34.00;;;;;8.79;91.30;103588.25;5055375;28;45463;-68
2021/12/18 11:59:42;;;;;;;;;48.33;36.67;;;;;8.81;91.18;103584.81;5055420;28;45742;-68
2021/12/18 12:02:10;;;;;;;;;43.33;34.67;;;;;8.80;91.04;103582.13;5055127;28;46854;-68
2021/12/18 12:04:58;;;;;;;;;50.67;33.67;;;;;8.79;91.79;103569.84;5054715;28;45759;-68